PWSweather.com
Personal Weather Stations
Station Observations
BANEKERE1
AntwerpenBE

AntwerpenBE

Lat: 51.2809101, Lon: 4.4202713

Elevation: 40

Station Type:

http://www.akker.be

Latest ConditionsUpdated 12:00:28 PM GMT+01:01 Monday, Apr 24, 2017
Currently Today's Max Today's Min Today's Average
Temperature 56.5°F13.6°C 56.5°F13.6°C 40.5°F4.7°C 44.9°F7.2°C
Dew Point 41.9°F5.5°C 41.9°F5.5°C 33.9°F1.1°C 35.7°F2.1°C
Winds 6.9 mph SSW11.1 kmh SSW 6.9 mph S11.1 kmh S - 3.3 mph 5.3 kmh
Wind Gusts 10.4 mph16.7 kmh 13.8 mph22.2 kmh - -
Humidity 58% 82% 56% 70%
Pressure 30.01 in1016.3 mb 30.23 in1023.7 mb 30.01 in1016.3 mb -
Hour Temp Dew Point Humidity Winds Wind Gusts Pressure Precip Precip Rate Daily Precip Total
12:00 PM 56.5°F13.6°C 41.9°F5.5°C 58% 6.9 mph SSW11.1 kmh SSW 10.4 mph16.7 kmh 30.01 in1016.3 mb - 0.00 in0.0 mm 0.00 in0.0 mm
11:00 AM 54.1°F12.3°C 39.2°F4.0°C 57% 6.9 mph SW11.1 kmh SW 10.4 mph16.7 kmh 30.04 in1017.3 mb - 0.00 in0.0 mm 0.00 in0.0 mm
10:51 AM 53.9°F12.2°C 38.6°F3.7°C 56% 5.8 mph SSW9.3 kmh SSW 12.7 mph20.4 kmh 30.04 in1017.3 mb - 0.00 in0.0 mm 0.00 in0.0 mm
10:00 AM 51.9°F11.1°C 38.0°F3.3°C 59% 5.8 mph SSW9.3 kmh SSW 12.7 mph20.4 kmh 30.05 in1017.6 mb - 0.00 in0.0 mm 0.00 in0.0 mm
09:00 AM 49.3°F9.6°C 36.4°F2.4°C 61% 6.9 mph S11.1 kmh S 12.7 mph20.4 kmh 30.07 in1018.3 mb - 0.00 in0.0 mm 0.00 in0.0 mm
08:41 AM 48.4°F9.1°C 36.0°F2.2°C 62% 5.8 mph S9.3 kmh S 12.7 mph20.4 kmh 30.07 in1018.3 mb - 0.00 in0.0 mm 0.00 in0.0 mm
08:21 AM 47.5°F8.6°C 35.6°F2.0°C 63% 6.9 mph S11.1 kmh S 13.8 mph22.2 kmh 30.08 in1018.6 mb - 0.00 in0.0 mm 0.00 in0.0 mm
08:00 AM 46.9°F8.3°C 35.4°F1.9°C 64% 5.8 mph SSW9.3 kmh SSW 10.4 mph16.7 kmh 30.08 in1018.6 mb - 0.00 in0.0 mm 0.00 in0.0 mm
07:21 AM 46.1°F7.8°C 34.6°F1.4°C 64% 4.6 mph SSW7.4 kmh SSW 8.1 mph13.0 kmh 30.09 in1019.0 mb - 0.00 in0.0 mm 0.00 in0.0 mm
07:00 AM 45.9°F7.7°C 34.7°F1.5°C 65% 3.5 mph SW5.6 kmh SW 8.1 mph13.0 kmh 30.10 in1019.3 mb - 0.00 in0.0 mm 0.00 in0.0 mm
06:51 AM 45.6°F7.6°C 34.5°F1.4°C 65% 3.5 mph SSW5.6 kmh SSW 5.8 mph9.3 kmh 30.09 in1019.0 mb - 0.00 in0.0 mm 0.00 in0.0 mm
06:31 AM 44.9°F7.2°C 34.2°F1.2°C 66% 3.5 mph SSW5.6 kmh SSW 8.1 mph13.0 kmh 30.10 in1019.3 mb - 0.00 in0.0 mm 0.00 in0.0 mm
06:21 AM 44.6°F7.0°C 33.9°F1.1°C 66% 3.5 mph S5.6 kmh S 10.4 mph16.7 kmh 30.10 in1019.3 mb - 0.00 in0.0 mm 0.00 in0.0 mm
06:11 AM 44.3°F6.8°C 34.1°F1.2°C 67% 3.5 mph SSW5.6 kmh SSW 6.9 mph11.1 kmh 30.10 in1019.3 mb - 0.00 in0.0 mm 0.00 in0.0 mm
06:00 AM 44.3°F6.8°C 34.0°F1.1°C 67% 3.5 mph SSW5.6 kmh SSW 5.8 mph9.3 kmh 30.10 in1019.3 mb - 0.00 in0.0 mm 0.00 in0.0 mm
05:41 AM 44.3°F6.8°C 34.1°F1.2°C 67% 5.8 mph S9.3 kmh S 8.1 mph13.0 kmh 30.11 in1019.6 mb - 0.00 in0.0 mm 0.00 in0.0 mm
05:31 AM 44.5°F6.9°C 34.2°F1.2°C 67% 4.6 mph S7.4 kmh S 8.1 mph13.0 kmh 30.11 in1019.6 mb - 0.00 in0.0 mm 0.00 in0.0 mm
05:21 AM 44.5°F6.9°C 34.2°F1.2°C 67% 4.6 mph S7.4 kmh S 10.4 mph16.7 kmh 30.11 in1019.6 mb - 0.00 in0.0 mm 0.00 in0.0 mm
05:11 AM 44.5°F6.9°C 34.2°F1.2°C 67% 4.6 mph S7.4 kmh S 9.2 mph14.8 kmh 30.11 in1019.6 mb - 0.00 in0.0 mm 0.00 in0.0 mm
05:00 AM 44.4°F6.9°C 34.5°F1.4°C 68% 5.8 mph SSW9.3 kmh SSW 9.2 mph14.8 kmh 30.11 in1019.6 mb - 0.00 in0.0 mm 0.00 in0.0 mm
04:00 AM 44.2°F6.8°C 35.4°F1.9°C 71% 4.6 mph S7.4 kmh S 5.8 mph9.3 kmh 30.14 in1020.7 mb - 0.00 in0.0 mm 0.00 in0.0 mm
03:51 AM 43.9°F6.6°C 35.8°F2.1°C 73% 4.6 mph S7.4 kmh S 6.9 mph11.1 kmh 30.14 in1020.7 mb - 0.00 in0.0 mm 0.00 in0.0 mm
03:41 AM 43.5°F6.4°C 35.8°F2.1°C 74% 2.3 mph S3.7 kmh S 6.9 mph11.1 kmh 30.14 in1020.7 mb - 0.00 in0.0 mm 0.00 in0.0 mm
03:21 AM 43.0°F6.1°C 35.6°F2.0°C 75% 2.3 mph S3.7 kmh S 8.1 mph13.0 kmh 30.15 in1021.0 mb - 0.00 in0.0 mm 0.00 in0.0 mm
03:00 AM 42.8°F6.0°C 35.7°F2.1°C 76% 1.2 mph S1.9 kmh S 2.3 mph3.7 kmh 30.16 in1021.3 mb - 0.00 in0.0 mm 0.00 in0.0 mm
02:31 AM 42.4°F5.8°C 36.0°F2.2°C 78% 1.2 mph S1.9 kmh S 2.3 mph3.7 kmh 30.17 in1021.7 mb - 0.00 in0.0 mm 0.00 in0.0 mm
02:21 AM 42.4°F5.8°C 36.0°F2.2°C 78% Calm Calm 2.3 mph3.7 kmh 30.17 in1021.7 mb - 0.00 in0.0 mm 0.00 in0.0 mm
02:11 AM 42.4°F5.8°C 36.1°F2.3°C 78% Calm Calm -- 30.18 in1022.0 mb - 0.00 in0.0 mm 0.00 in0.0 mm
02:00 AM 42.3°F5.7°C 36.0°F2.2°C 78% 1.2 mph S1.9 kmh S 1.2 mph1.9 kmh 30.18 in1022.0 mb - 0.00 in0.0 mm 0.00 in0.0 mm
01:51 AM 42.0°F5.6°C 36.0°F2.2°C 79% 1.2 mph S1.9 kmh S 3.5 mph5.6 kmh 30.18 in1022.0 mb - 0.00 in0.0 mm 0.00 in0.0 mm
01:00 AM 40.7°F4.8°C 35.6°F2.0°C 82% Calm Calm 1.2 mph1.9 kmh 30.20 in1022.7 mb - 0.00 in0.0 mm 0.00 in0.0 mm
12:51 AM 40.5°F4.7°C 35.4°F1.9°C 82% Calm Calm 2.3 mph3.7 kmh 30.21 in1023.0 mb - 0.00 in0.0 mm 0.00 in0.0 mm
12:41 AM 40.5°F4.7°C 35.4°F1.9°C 82% Calm Calm 1.2 mph1.9 kmh 30.21 in1023.0 mb - 0.00 in0.0 mm 0.00 in0.0 mm
12:31 AM 40.6°F4.8°C 35.5°F1.9°C 82% Calm Calm 1.2 mph1.9 kmh 30.22 in1023.4 mb - 0.00 in0.0 mm 0.00 in0.0 mm
12:21 AM 40.7°F4.8°C 35.6°F2.0°C 82% Calm Calm -- 30.22 in1023.4 mb - 0.00 in0.0 mm 0.00 in0.0 mm
12:11 AM 40.9°F4.9°C 35.5°F1.9°C 81% Calm Calm -- 30.22 in1023.4 mb - 0.00 in0.0 mm 0.00 in0.0 mm
12:00 AM 41.1°F5.1°C 35.7°F2.1°C 81% Calm Calm -- 30.23 in1023.7 mb - 0.00 in0.0 mm 0.00 in0.0 mm